sensor_id;sensor_type;location;lat;lon;timestamp;P1;durP1;ratioP1;P2;durP2;ratioP2
85457;SDS011;75848;42.706;23.292;2024-02-16T00:00:43;18.80;;;9.60;;
85457;SDS011;75848;42.706;23.292;2024-02-16T00:03:11;18.67;;;9.57;;
85457;SDS011;75848;42.706;23.292;2024-02-16T00:05:38;23.98;;;10.05;;
85457;SDS011;75848;42.706;23.292;2024-02-16T00:08:05;21.05;;;11.20;;
85457;SDS011;75848;42.706;23.292;2024-02-16T00:10:31;26.77;;;11.10;;
85457;SDS011;75848;42.706;23.292;2024-02-16T00:12:57;27.05;;;11.45;;
85457;SDS011;75848;42.706;23.292;2024-02-16T00:15:23;21.00;;;10.27;;
85457;SDS011;75848;42.706;23.292;2024-02-16T00:17:48;23.52;;;8.77;;
85457;SDS011;75848;42.706;23.292;2024-02-16T00:20:15;18.10;;;8.95;;
85457;SDS011;75848;42.706;23.292;2024-02-16T00:22:40;17.33;;;8.10;;
85457;SDS011;75848;42.706;23.292;2024-02-16T00:25:06;17.27;;;8.50;;
85457;SDS011;75848;42.706;23.292;2024-02-16T00:27:35;18.90;;;8.25;;
85457;SDS011;75848;42.706;23.292;2024-02-16T00:30:01;21.00;;;9.02;;
85457;SDS011;75848;42.706;23.292;2024-02-16T00:32:27;15.77;;;7.95;;
85457;SDS011;75848;42.706;23.292;2024-02-16T00:34:55;18.13;;;8.55;;
85457;SDS011;75848;42.706;23.292;2024-02-16T00:37:22;20.17;;;8.52;;
85457;SDS011;75848;42.706;23.292;2024-02-16T00:39:47;15.68;;;7.72;;
85457;SDS011;75848;42.706;23.292;2024-02-16T00:42:15;14.25;;;7.57;;
85457;SDS011;75848;42.706;23.292;2024-02-16T00:44:42;16.77;;;8.02;;
85457;SDS011;75848;42.706;23.292;2024-02-16T00:47:08;14.77;;;7.57;;
85457;SDS011;75848;42.706;23.292;2024-02-16T00:49:35;16.70;;;7.22;;
85457;SDS011;75848;42.706;23.292;2024-02-16T00:52:00;13.77;;;7.45;;
85457;SDS011;75848;42.706;23.292;2024-02-16T00:54:27;11.50;;;6.05;;
85457;SDS011;75848;42.706;23.292;2024-02-16T00:56:53;12.25;;;6.30;;
85457;SDS011;75848;42.706;23.292;2024-02-16T00:59:19;14.75;;;7.50;;
85457;SDS011;75848;42.706;23.292;2024-02-16T01:01:46;17.80;;;8.30;;
85457;SDS011;75848;42.706;23.292;2024-02-16T01:04:12;14.98;;;9.43;;
85457;SDS011;75848;42.706;23.292;2024-02-16T01:06:37;19.90;;;10.25;;
85457;SDS011;75848;42.706;23.292;2024-02-16T01:09:03;21.35;;;10.60;;
85457;SDS011;75848;42.706;23.292;2024-02-16T01:11:28;20.20;;;9.65;;
85457;SDS011;75848;42.706;23.292;2024-02-16T01:13:54;24.08;;;10.68;;
85457;SDS011;75848;42.706;23.292;2024-02-16T01:16:19;22.58;;;10.98;;
85457;SDS011;75848;42.706;23.292;2024-02-16T01:18:45;19.90;;;10.57;;
85457;SDS011;75848;42.706;23.292;2024-02-16T01:21:11;23.27;;;11.85;;
85457;SDS011;75848;42.706;23.292;2024-02-16T01:23:38;23.30;;;11.05;;
85457;SDS011;75848;42.706;23.292;2024-02-16T01:26:03;26.10;;;12.18;;
85457;SDS011;75848;42.706;23.292;2024-02-16T01:28:29;29.63;;;12.68;;
85457;SDS011;75848;42.706;23.292;2024-02-16T01:30:56;24.88;;;12.38;;
85457;SDS011;75848;42.706;23.292;2024-02-16T01:33:22;23.83;;;11.15;;
85457;SDS011;75848;42.706;23.292;2024-02-16T01:35:47;18.42;;;11.35;;
85457;SDS011;75848;42.706;23.292;2024-02-16T01:38:13;23.27;;;11.32;;
85457;SDS011;75848;42.706;23.292;2024-02-16T01:40:39;18.50;;;9.98;;
85457;SDS011;75848;42.706;23.292;2024-02-16T01:43:05;20.88;;;10.98;;
85457;SDS011;75848;42.706;23.292;2024-02-16T01:45:31;25.05;;;11.43;;
85457;SDS011;75848;42.706;23.292;2024-02-16T01:47:56;23.17;;;9.80;;
85457;SDS011;75848;42.706;23.292;2024-02-16T01:50:24;17.55;;;9.80;;
85457;SDS011;75848;42.706;23.292;2024-02-16T01:52:50;18.38;;;9.95;;
85457;SDS011;75848;42.706;23.292;2024-02-16T01:55:16;18.13;;;9.30;;
85457;SDS011;75848;42.706;23.292;2024-02-16T01:57:46;20.73;;;10.65;;
85457;SDS011;75848;42.706;23.292;2024-02-16T02:00:13;18.15;;;9.13;;
85457;SDS011;75848;42.706;23.292;2024-02-16T02:02:46;21.55;;;10.02;;
85457;SDS011;75848;42.706;23.292;2024-02-16T02:07:38;16.55;;;8.25;;
85457;SDS011;75848;42.706;23.292;2024-02-16T02:10:03;20.17;;;9.25;;
85457;SDS011;75848;42.706;23.292;2024-02-16T02:12:29;16.40;;;9.00;;
85457;SDS011;75848;42.706;23.292;2024-02-16T02:14:55;18.50;;;9.10;;
85457;SDS011;75848;42.706;23.292;2024-02-16T02:17:20;21.20;;;9.50;;
85457;SDS011;75848;42.706;23.292;2024-02-16T02:19:46;18.58;;;9.93;;
85457;SDS011;75848;42.706;23.292;2024-02-16T02:22:18;19.90;;;9.32;;
85457;SDS011;75848;42.706;23.292;2024-02-16T02:24:45;16.33;;;9.07;;
85457;SDS011;75848;42.706;23.292;2024-02-16T02:27:14;17.42;;;8.90;;
85457;SDS011;75848;42.706;23.292;2024-02-16T02:29:40;19.60;;;8.48;;
85457;SDS011;75848;42.706;23.292;2024-02-16T02:32:07;16.67;;;8.13;;
85457;SDS011;75848;42.706;23.292;2024-02-16T02:34:33;15.00;;;8.05;;
85457;SDS011;75848;42.706;23.292;2024-02-16T02:37:01;13.45;;;7.32;;
85457;SDS011;75848;42.706;23.292;2024-02-16T02:39:27;14.05;;;7.10;;
85457;SDS011;75848;42.706;23.292;2024-02-16T02:41:52;15.07;;;7.45;;
85457;SDS011;75848;42.706;23.292;2024-02-16T02:44:18;10.43;;;6.35;;
85457;SDS011;75848;42.706;23.292;2024-02-16T02:46:47;14.65;;;6.35;;
85457;SDS011;75848;42.706;23.292;2024-02-16T02:49:12;12.93;;;6.55;;
85457;SDS011;75848;42.706;23.292;2024-02-16T02:51:39;14.30;;;7.10;;
85457;SDS011;75848;42.706;23.292;2024-02-16T02:54:04;13.93;;;6.05;;
85457;SDS011;75848;42.706;23.292;2024-02-16T02:56:30;9.75;;;4.65;;
85457;SDS011;75848;42.706;23.292;2024-02-16T02:58:55;9.25;;;5.65;;
85457;SDS011;75848;42.706;23.292;2024-02-16T03:01:21;12.88;;;5.05;;
85457;SDS011;75848;42.706;23.292;2024-02-16T03:03:47;11.35;;;5.85;;
85457;SDS011;75848;42.706;23.292;2024-02-16T03:06:16;11.75;;;6.53;;
85457;SDS011;75848;42.706;23.292;2024-02-16T03:08:42;11.43;;;5.88;;
85457;SDS011;75848;42.706;23.292;2024-02-16T03:11:08;10.88;;;6.00;;
85457;SDS011;75848;42.706;23.292;2024-02-16T03:13:34;18.83;;;6.10;;
85457;SDS011;75848;42.706;23.292;2024-02-16T03:15:59;12.40;;;6.18;;
85457;SDS011;75848;42.706;23.292;2024-02-16T03:18:25;11.05;;;6.28;;
85457;SDS011;75848;42.706;23.292;2024-02-16T03:20:55;12.70;;;6.03;;
85457;SDS011;75848;42.706;23.292;2024-02-16T03:23:22;15.00;;;6.65;;
85457;SDS011;75848;42.706;23.292;2024-02-16T03:25:48;13.95;;;7.03;;
85457;SDS011;75848;42.706;23.292;2024-02-16T03:28:14;15.07;;;6.78;;
85457;SDS011;75848;42.706;23.292;2024-02-16T03:30:40;11.88;;;6.40;;
85457;SDS011;75848;42.706;23.292;2024-02-16T03:33:07;16.20;;;8.82;;
85457;SDS011;75848;42.706;23.292;2024-02-16T03:35:33;21.00;;;10.30;;
85457;SDS011;75848;42.706;23.292;2024-02-16T03:37:58;20.90;;;9.13;;
85457;SDS011;75848;42.706;23.292;2024-02-16T03:40:24;16.95;;;8.75;;
85457;SDS011;75848;42.706;23.292;2024-02-16T03:42:54;14.10;;;7.03;;
85457;SDS011;75848;42.706;23.292;2024-02-16T03:45:19;18.60;;;6.95;;
85457;SDS011;75848;42.706;23.292;2024-02-16T03:47:45;18.70;;;7.90;;
85457;SDS011;75848;42.706;23.292;2024-02-16T03:50:13;18.90;;;7.90;;
85457;SDS011;75848;42.706;23.292;2024-02-16T03:52:39;11.27;;;7.32;;
85457;SDS011;75848;42.706;23.292;2024-02-16T03:55:06;12.07;;;7.10;;
85457;SDS011;75848;42.706;23.292;2024-02-16T03:57:32;15.60;;;7.15;;
85457;SDS011;75848;42.706;23.292;2024-02-16T03:59:58;14.48;;;7.03;;
85457;SDS011;75848;42.706;23.292;2024-02-16T04:02:24;12.23;;;6.57;;
85457;SDS011;75848;42.706;23.292;2024-02-16T04:04:53;13.13;;;6.82;;
85457;SDS011;75848;42.706;23.292;2024-02-16T04:07:18;14.00;;;6.90;;
85457;SDS011;75848;42.706;23.292;2024-02-16T04:09:44;12.85;;;7.38;;
85457;SDS011;75848;42.706;23.292;2024-02-16T04:12:10;13.32;;;6.57;;
85457;SDS011;75848;42.706;23.292;2024-02-16T04:14:36;10.93;;;6.53;;
85457;SDS011;75848;42.706;23.292;2024-02-16T04:17:02;11.85;;;5.97;;
85457;SDS011;75848;42.706;23.292;2024-02-16T04:19:27;13.18;;;6.70;;
85457;SDS011;75848;42.706;23.292;2024-02-16T04:21:53;13.52;;;7.32;;
85457;SDS011;75848;42.706;23.292;2024-02-16T04:24:23;15.20;;;6.85;;
85457;SDS011;75848;42.706;23.292;2024-02-16T04:26:48;14.52;;;6.85;;
85457;SDS011;75848;42.706;23.292;2024-02-16T04:29:16;13.93;;;6.32;;
85457;SDS011;75848;42.706;23.292;2024-02-16T04:31:41;13.45;;;6.80;;
85457;SDS011;75848;42.706;23.292;2024-02-16T04:34:08;11.07;;;6.72;;
85457;SDS011;75848;42.706;23.292;2024-02-16T04:36:34;17.35;;;8.32;;
85457;SDS011;75848;42.706;23.292;2024-02-16T04:39:00;17.95;;;7.57;;
85457;SDS011;75848;42.706;23.292;2024-02-16T04:41:26;17.83;;;9.05;;
85457;SDS011;75848;42.706;23.292;2024-02-16T04:43:54;34.35;;;16.05;;
85457;SDS011;75848;42.706;23.292;2024-02-16T04:46:19;13.93;;;7.38;;
85457;SDS011;75848;42.706;23.292;2024-02-16T04:48:45;9.98;;;6.35;;
85457;SDS011;75848;42.706;23.292;2024-02-16T04:51:11;12.73;;;6.00;;
85457;SDS011;75848;42.706;23.292;2024-02-16T04:53:37;13.27;;;6.40;;
85457;SDS011;75848;42.706;23.292;2024-02-16T04:56:03;15.20;;;6.10;;
85457;SDS011;75848;42.706;23.292;2024-02-16T04:58:30;13.65;;;6.97;;
85457;SDS011;75848;42.706;23.292;2024-02-16T05:00:58;13.68;;;6.60;;
85457;SDS011;75848;42.706;23.292;2024-02-16T05:03:25;10.38;;;6.03;;
85457;SDS011;75848;42.706;23.292;2024-02-16T05:05:51;12.13;;;6.45;;
85457;SDS011;75848;42.706;23.292;2024-02-16T05:08:21;14.35;;;6.80;;
85457;SDS011;75848;42.706;23.292;2024-02-16T05:10:47;14.85;;;6.63;;
85457;SDS011;75848;42.706;23.292;2024-02-16T05:13:15;17.80;;;8.68;;
85457;SDS011;75848;42.706;23.292;2024-02-16T05:15:41;18.55;;;11.02;;
85457;SDS011;75848;42.706;23.292;2024-02-16T05:18:08;128.00;;;47.08;;
85457;SDS011;75848;42.706;23.292;2024-02-16T05:20:37;34.80;;;15.40;;
85457;SDS011;75848;42.706;23.292;2024-02-16T05:23:03;17.15;;;8.90;;
85457;SDS011;75848;42.706;23.292;2024-02-16T05:25:29;18.05;;;8.57;;
85457;SDS011;75848;42.706;23.292;2024-02-16T05:27:55;16.13;;;7.93;;
85457;SDS011;75848;42.706;23.292;2024-02-16T05:30:20;12.98;;;8.43;;
85457;SDS011;75848;42.706;23.292;2024-02-16T05:32:46;13.30;;;7.18;;
85457;SDS011;75848;42.706;23.292;2024-02-16T05:35:14;23.33;;;9.43;;
85457;SDS011;75848;42.706;23.292;2024-02-16T05:37:42;13.95;;;7.72;;
85457;SDS011;75848;42.706;23.292;2024-02-16T05:40:09;21.65;;;8.15;;
85457;SDS011;75848;42.706;23.292;2024-02-16T05:42:50;14.50;;;8.68;;
85457;SDS011;75848;42.706;23.292;2024-02-16T05:45:17;17.30;;;7.90;;
85457;SDS011;75848;42.706;23.292;2024-02-16T05:47:44;24.63;;;9.23;;
85457;SDS011;75848;42.706;23.292;2024-02-16T05:50:14;18.85;;;8.95;;
85457;SDS011;75848;42.706;23.292;2024-02-16T05:52:43;22.08;;;9.15;;
85457;SDS011;75848;42.706;23.292;2024-02-16T05:55:09;19.23;;;8.98;;
85457;SDS011;75848;42.706;23.292;2024-02-16T05:57:36;17.52;;;9.27;;
85457;SDS011;75848;42.706;23.292;2024-02-16T06:00:05;21.75;;;9.98;;
85457;SDS011;75848;42.706;23.292;2024-02-16T06:02:33;25.85;;;10.10;;
85457;SDS011;75848;42.706;23.292;2024-02-16T06:04:59;27.10;;;11.10;;
85457;SDS011;75848;42.706;23.292;2024-02-16T06:07:30;32.95;;;15.32;;
85457;SDS011;75848;42.706;23.292;2024-02-16T06:09:56;23.35;;;11.10;;
85457;SDS011;75848;42.706;23.292;2024-02-16T06:12:22;20.85;;;10.00;;
85457;SDS011;75848;42.706;23.292;2024-02-16T06:14:48;18.20;;;9.85;;
85457;SDS011;75848;42.706;23.292;2024-02-16T06:17:15;22.88;;;10.77;;
85457;SDS011;75848;42.706;23.292;2024-02-16T06:19:41;23.05;;;9.55;;
85457;SDS011;75848;42.706;23.292;2024-02-16T06:22:07;19.15;;;9.20;;
85457;SDS011;75848;42.706;23.292;2024-02-16T06:24:37;18.60;;;10.30;;
85457;SDS011;75848;42.706;23.292;2024-02-16T06:27:03;23.05;;;10.68;;
85457;SDS011;75848;42.706;23.292;2024-02-16T06:29:29;22.08;;;10.48;;
85457;SDS011;75848;42.706;23.292;2024-02-16T06:31:55;23.38;;;9.93;;
85457;SDS011;75848;42.706;23.292;2024-02-16T06:34:23;22.95;;;10.27;;
85457;SDS011;75848;42.706;23.292;2024-02-16T06:36:49;20.77;;;10.55;;
85457;SDS011;75848;42.706;23.292;2024-02-16T06:39:15;22.35;;;10.35;;
85457;SDS011;75848;42.706;23.292;2024-02-16T06:41:43;23.63;;;10.40;;
85457;SDS011;75848;42.706;23.292;2024-02-16T06:44:10;18.02;;;9.60;;
85457;SDS011;75848;42.706;23.292;2024-02-16T06:46:38;19.90;;;10.27;;
85457;SDS011;75848;42.706;23.292;2024-02-16T06:49:04;19.23;;;10.13;;
85457;SDS011;75848;42.706;23.292;2024-02-16T06:51:30;22.15;;;10.77;;
85457;SDS011;75848;42.706;23.292;2024-02-16T06:54:00;18.67;;;9.82;;
85457;SDS011;75848;42.706;23.292;2024-02-16T06:56:25;20.70;;;10.57;;
85457;SDS011;75848;42.706;23.292;2024-02-16T06:58:54;22.70;;;10.40;;
85457;SDS011;75848;42.706;23.292;2024-02-16T07:01:21;20.13;;;10.52;;
85457;SDS011;75848;42.706;23.292;2024-02-16T07:03:49;19.08;;;8.55;;
85457;SDS011;75848;42.706;23.292;2024-02-16T07:06:15;20.02;;;9.52;;
85457;SDS011;75848;42.706;23.292;2024-02-16T07:08:43;15.32;;;8.07;;
85457;SDS011;75848;42.706;23.292;2024-02-16T07:11:10;17.52;;;8.73;;
85457;SDS011;75848;42.706;23.292;2024-02-16T07:16:05;17.35;;;7.78;;
85457;SDS011;75848;42.706;23.292;2024-02-16T07:18:35;14.80;;;6.78;;
85457;SDS011;75848;42.706;23.292;2024-02-16T07:21:03;15.30;;;6.97;;
85457;SDS011;75848;42.706;23.292;2024-02-16T07:23:29;15.23;;;7.43;;
85457;SDS011;75848;42.706;23.292;2024-02-16T07:25:55;13.80;;;6.70;;
85457;SDS011;75848;42.706;23.292;2024-02-16T07:28:23;12.80;;;6.80;;
85457;SDS011;75848;42.706;23.292;2024-02-16T07:30:50;13.43;;;6.85;;
85457;SDS011;75848;42.706;23.292;2024-02-16T07:33:16;11.82;;;7.18;;
85457;SDS011;75848;42.706;23.292;2024-02-16T07:35:43;18.63;;;7.45;;
85457;SDS011;75848;42.706;23.292;2024-02-16T07:38:10;9.20;;;5.75;;
85457;SDS011;75848;42.706;23.292;2024-02-16T07:40:37;15.55;;;7.00;;
85457;SDS011;75848;42.706;23.292;2024-02-16T07:43:04;15.25;;;7.88;;
85457;SDS011;75848;42.706;23.292;2024-02-16T07:45:30;14.30;;;7.88;;
85457;SDS011;75848;42.706;23.292;2024-02-16T07:47:56;23.38;;;11.02;;
85457;SDS011;75848;42.706;23.292;2024-02-16T07:50:22;24.92;;;10.75;;
85457;SDS011;75848;42.706;23.292;2024-02-16T07:52:49;25.98;;;9.95;;
85457;SDS011;75848;42.706;23.292;2024-02-16T07:55:16;16.13;;;8.52;;
85457;SDS011;75848;42.706;23.292;2024-02-16T07:57:49;11.95;;;6.20;;
85457;SDS011;75848;42.706;23.292;2024-02-16T08:00:15;14.75;;;8.10;;
85457;SDS011;75848;42.706;23.292;2024-02-16T08:02:44;14.15;;;6.90;;
85457;SDS011;75848;42.706;23.292;2024-02-16T08:05:13;18.10;;;8.48;;
85457;SDS011;75848;42.706;23.292;2024-02-16T08:07:39;21.27;;;10.07;;
85457;SDS011;75848;42.706;23.292;2024-02-16T08:10:09;19.55;;;11.52;;
85457;SDS011;75848;42.706;23.292;2024-02-16T08:12:38;20.60;;;12.60;;
85457;SDS011;75848;42.706;23.292;2024-02-16T08:15:05;26.80;;;14.35;;
85457;SDS011;75848;42.706;23.292;2024-02-16T08:17:34;19.83;;;11.52;;
85457;SDS011;75848;42.706;23.292;2024-02-16T08:20:01;22.00;;;11.32;;
85457;SDS011;75848;42.706;23.292;2024-02-16T08:22:30;22.48;;;13.40;;
85457;SDS011;75848;42.706;23.292;2024-02-16T08:24:58;21.08;;;12.50;;
85457;SDS011;75848;42.706;23.292;2024-02-16T08:27:23;20.70;;;11.63;;
85457;SDS011;75848;42.706;23.292;2024-02-16T08:29:50;18.25;;;10.85;;
85457;SDS011;75848;42.706;23.292;2024-02-16T08:32:20;20.15;;;11.05;;
85457;SDS011;75848;42.706;23.292;2024-02-16T08:34:50;18.55;;;8.85;;
85457;SDS011;75848;42.706;23.292;2024-02-16T08:37:22;14.32;;;9.13;;
85457;SDS011;75848;42.706;23.292;2024-02-16T08:39:51;13.43;;;8.52;;
85457;SDS011;75848;42.706;23.292;2024-02-16T08:42:19;20.83;;;10.65;;
85457;SDS011;75848;42.706;23.292;2024-02-16T08:44:51;19.88;;;10.00;;
85457;SDS011;75848;42.706;23.292;2024-02-16T08:47:19;24.88;;;11.60;;
85457;SDS011;75848;42.706;23.292;2024-02-16T08:49:45;16.65;;;8.10;;
85457;SDS011;75848;42.706;23.292;2024-02-16T08:52:13;16.58;;;8.07;;
85457;SDS011;75848;42.706;23.292;2024-02-16T08:54:57;13.73;;;8.18;;
85457;SDS011;75848;42.706;23.292;2024-02-16T08:57:49;13.13;;;7.10;;
85457;SDS011;75848;42.706;23.292;2024-02-16T09:00:16;23.73;;;10.02;;
85457;SDS011;75848;42.706;23.292;2024-02-16T09:02:42;20.20;;;9.27;;
85457;SDS011;75848;42.706;23.292;2024-02-16T09:05:10;14.02;;;7.47;;
85457;SDS011;75848;42.706;23.292;2024-02-16T09:07:36;13.65;;;8.65;;
85457;SDS011;75848;42.706;23.292;2024-02-16T09:10:12;16.48;;;9.23;;
85457;SDS011;75848;42.706;23.292;2024-02-16T09:12:39;20.88;;;9.23;;
85457;SDS011;75848;42.706;23.292;2024-02-16T09:15:07;13.77;;;7.97;;
85457;SDS011;75848;42.706;23.292;2024-02-16T09:17:33;13.43;;;7.53;;
85457;SDS011;75848;42.706;23.292;2024-02-16T09:19:59;19.50;;;9.63;;
85457;SDS011;75848;42.706;23.292;2024-02-16T09:22:32;17.95;;;8.98;;
85457;SDS011;75848;42.706;23.292;2024-02-16T09:24:58;13.10;;;5.40;;
85457;SDS011;75848;42.706;23.292;2024-02-16T09:27:27;9.57;;;5.72;;
85457;SDS011;75848;42.706;23.292;2024-02-16T09:29:53;9.48;;;4.82;;
85457;SDS011;75848;42.706;23.292;2024-02-16T09:32:20;7.50;;;4.03;;
85457;SDS011;75848;42.706;23.292;2024-02-16T09:34:49;5.57;;;3.80;;
85457;SDS011;75848;42.706;23.292;2024-02-16T09:37:26;8.00;;;4.75;;
85457;SDS011;75848;42.706;23.292;2024-02-16T09:39:51;5.95;;;4.70;;
85457;SDS011;75848;42.706;23.292;2024-02-16T09:42:23;7.65;;;4.32;;
85457;SDS011;75848;42.706;23.292;2024-02-16T09:45:03;10.35;;;4.15;;
85457;SDS011;75848;42.706;23.292;2024-02-16T09:47:32;6.00;;;3.55;;
85457;SDS011;75848;42.706;23.292;2024-02-16T09:50:00;6.85;;;4.18;;
85457;SDS011;75848;42.706;23.292;2024-02-16T09:52:26;12.15;;;4.25;;
85457;SDS011;75848;42.706;23.292;2024-02-16T09:54:52;6.90;;;4.32;;
85457;SDS011;75848;42.706;23.292;2024-02-16T09:57:17;8.10;;;4.05;;
85457;SDS011;75848;42.706;23.292;2024-02-16T09:59:43;7.10;;;4.85;;
85457;SDS011;75848;42.706;23.292;2024-02-16T10:02:09;6.85;;;3.90;;
85457;SDS011;75848;42.706;23.292;2024-02-16T10:04:35;6.10;;;3.70;;
85457;SDS011;75848;42.706;23.292;2024-02-16T10:07:01;7.32;;;4.43;;
85457;SDS011;75848;42.706;23.292;2024-02-16T10:09:28;8.80;;;4.72;;
85457;SDS011;75848;42.706;23.292;2024-02-16T10:11:54;3.55;;;3.05;;
85457;SDS011;75848;42.706;23.292;2024-02-16T10:14:22;9.57;;;5.57;;
85457;SDS011;75848;42.706;23.292;2024-02-16T10:16:48;4.97;;;3.63;;
85457;SDS011;75848;42.706;23.292;2024-02-16T10:19:24;6.22;;;4.43;;
85457;SDS011;75848;42.706;23.292;2024-02-16T10:21:51;6.13;;;4.40;;
85457;SDS011;75848;42.706;23.292;2024-02-16T10:24:20;18.20;;;5.15;;
85457;SDS011;75848;42.706;23.292;2024-02-16T10:26:48;9.38;;;4.47;;
85457;SDS011;75848;42.706;23.292;2024-02-16T10:29:21;6.78;;;4.53;;
85457;SDS011;75848;42.706;23.292;2024-02-16T10:31:54;5.38;;;4.15;;
85457;SDS011;75848;42.706;23.292;2024-02-16T10:34:20;7.72;;;5.10;;
85457;SDS011;75848;42.706;23.292;2024-02-16T10:36:49;6.07;;;4.35;;
85457;SDS011;75848;42.706;23.292;2024-02-16T10:39:16;6.47;;;4.40;;
85457;SDS011;75848;42.706;23.292;2024-02-16T10:41:44;7.32;;;4.57;;
85457;SDS011;75848;42.706;23.292;2024-02-16T10:44:11;7.78;;;4.18;;
85457;SDS011;75848;42.706;23.292;2024-02-16T10:46:37;5.88;;;3.20;;
85457;SDS011;75848;42.706;23.292;2024-02-16T10:49:06;2.80;;;2.50;;
85457;SDS011;75848;42.706;23.292;2024-02-16T10:51:40;6.03;;;3.38;;
85457;SDS011;75848;42.706;23.292;2024-02-16T10:54:13;4.50;;;3.05;;
85457;SDS011;75848;42.706;23.292;2024-02-16T10:56:47;3.00;;;2.70;;
85457;SDS011;75848;42.706;23.292;2024-02-16T10:59:16;4.35;;;3.03;;
85457;SDS011;75848;42.706;23.292;2024-02-16T11:01:46;6.68;;;3.28;;
85457;SDS011;75848;42.706;23.292;2024-02-16T11:04:35;5.28;;;2.75;;
85457;SDS011;75848;42.706;23.292;2024-02-16T11:07:11;5.57;;;3.60;;
85457;SDS011;75848;42.706;23.292;2024-02-16T11:09:40;11.95;;;8.10;;
85457;SDS011;75848;42.706;23.292;2024-02-16T11:12:06;4.85;;;3.38;;
85457;SDS011;75848;42.706;23.292;2024-02-16T11:14:41;4.10;;;2.78;;
85457;SDS011;75848;42.706;23.292;2024-02-16T11:17:22;7.15;;;3.38;;
85457;SDS011;75848;42.706;23.292;2024-02-16T11:19:48;58.53;;;7.03;;
85457;SDS011;75848;42.706;23.292;2024-02-16T11:22:26;5.07;;;3.10;;
85457;SDS011;75848;42.706;23.292;2024-02-16T11:24:53;4.38;;;2.83;;
85457;SDS011;75848;42.706;23.292;2024-02-16T11:27:22;6.72;;;3.30;;
85457;SDS011;75848;42.706;23.292;2024-02-16T11:32:14;6.63;;;3.42;;
85457;SDS011;75848;42.706;23.292;2024-02-16T11:34:39;6.55;;;3.13;;
85457;SDS011;75848;42.706;23.292;2024-02-16T11:37:05;5.72;;;4.03;;
85457;SDS011;75848;42.706;23.292;2024-02-16T11:39:31;5.15;;;3.63;;
85457;SDS011;75848;42.706;23.292;2024-02-16T11:42:06;4.55;;;2.90;;
85457;SDS011;75848;42.706;23.292;2024-02-16T11:44:35;3.10;;;2.80;;
85457;SDS011;75848;42.706;23.292;2024-02-16T11:47:02;4.43;;;3.03;;
85457;SDS011;75848;42.706;23.292;2024-02-16T11:49:28;5.13;;;3.15;;
85457;SDS011;75848;42.706;23.292;2024-02-16T11:51:55;5.60;;;2.90;;
85457;SDS011;75848;42.706;23.292;2024-02-16T11:54:21;5.80;;;3.22;;
85457;SDS011;75848;42.706;23.292;2024-02-16T11:56:47;3.20;;;2.78;;
85457;SDS011;75848;42.706;23.292;2024-02-16T11:59:16;3.58;;;2.63;;
85457;SDS011;75848;42.706;23.292;2024-02-16T12:02:16;2.83;;;2.63;;
85457;SDS011;75848;42.706;23.292;2024-02-16T12:04:42;6.15;;;2.50;;
85457;SDS011;75848;42.706;23.292;2024-02-16T12:07:07;3.67;;;2.38;;
85457;SDS011;75848;42.706;23.292;2024-02-16T12:09:33;6.65;;;3.60;;
85457;SDS011;75848;42.706;23.292;2024-02-16T12:12:01;5.03;;;3.30;;
85457;SDS011;75848;42.706;23.292;2024-02-16T12:14:30;8.32;;;3.78;;
85457;SDS011;75848;42.706;23.292;2024-02-16T12:16:58;3.83;;;2.83;;
85457;SDS011;75848;42.706;23.292;2024-02-16T12:19:27;4.28;;;2.92;;
85457;SDS011;75848;42.706;23.292;2024-02-16T12:21:53;3.58;;;2.63;;
85457;SDS011;75848;42.706;23.292;2024-02-16T12:24:23;2.80;;;2.10;;
85457;SDS011;75848;42.706;23.292;2024-02-16T12:26:49;4.88;;;2.53;;
85457;SDS011;75848;42.706;23.292;2024-02-16T12:29:15;4.20;;;2.65;;
85457;SDS011;75848;42.706;23.292;2024-02-16T12:31:42;4.18;;;3.30;;
85457;SDS011;75848;42.706;23.292;2024-02-16T12:34:09;5.13;;;3.00;;
85457;SDS011;75848;42.706;23.292;2024-02-16T12:36:36;3.72;;;3.22;;
85457;SDS011;75848;42.706;23.292;2024-02-16T12:39:07;3.53;;;2.72;;
85457;SDS011;75848;42.706;23.292;2024-02-16T12:41:38;8.80;;;3.15;;
85457;SDS011;75848;42.706;23.292;2024-02-16T12:44:06;3.58;;;2.50;;
85457;SDS011;75848;42.706;23.292;2024-02-16T12:46:32;4.32;;;2.97;;
85457;SDS011;75848;42.706;23.292;2024-02-16T12:48:57;3.90;;;2.42;;
85457;SDS011;75848;42.706;23.292;2024-02-16T12:51:24;5.28;;;2.70;;
85457;SDS011;75848;42.706;23.292;2024-02-16T12:53:50;3.53;;;2.90;;
85457;SDS011;75848;42.706;23.292;2024-02-16T12:56:16;6.35;;;2.83;;
85457;SDS011;75848;42.706;23.292;2024-02-16T12:58:42;3.83;;;2.92;;
85457;SDS011;75848;42.706;23.292;2024-02-16T13:01:08;8.05;;;2.85;;
85457;SDS011;75848;42.706;23.292;2024-02-16T13:03:36;3.30;;;2.55;;
85457;SDS011;75848;42.706;23.292;2024-02-16T13:06:02;4.78;;;3.17;;
85457;SDS011;75848;42.706;23.292;2024-02-16T13:08:31;3.60;;;3.00;;
85457;SDS011;75848;42.706;23.292;2024-02-16T13:11:06;4.93;;;3.08;;
85457;SDS011;75848;42.706;23.292;2024-02-16T13:13:32;5.68;;;3.17;;
85457;SDS011;75848;42.706;23.292;2024-02-16T13:15:59;4.47;;;2.78;;
85457;SDS011;75848;42.706;23.292;2024-02-16T13:18:29;4.20;;;2.38;;
85457;SDS011;75848;42.706;23.292;2024-02-16T13:20:56;4.57;;;2.72;;
85457;SDS011;75848;42.706;23.292;2024-02-16T13:23:23;6.47;;;2.97;;
85457;SDS011;75848;42.706;23.292;2024-02-16T13:25:48;3.58;;;2.70;;
85457;SDS011;75848;42.706;23.292;2024-02-16T13:28:15;3.60;;;2.50;;
85457;SDS011;75848;42.706;23.292;2024-02-16T13:30:42;5.53;;;3.28;;
85457;SDS011;75848;42.706;23.292;2024-02-16T13:33:07;4.18;;;2.90;;
85457;SDS011;75848;42.706;23.292;2024-02-16T13:35:35;4.28;;;2.78;;
85457;SDS011;75848;42.706;23.292;2024-02-16T13:38:03;3.65;;;2.72;;
85457;SDS011;75848;42.706;23.292;2024-02-16T13:40:30;8.43;;;3.22;;
85457;SDS011;75848;42.706;23.292;2024-02-16T13:42:55;3.70;;;3.17;;
85457;SDS011;75848;42.706;23.292;2024-02-16T13:45:26;4.45;;;3.10;;
85457;SDS011;75848;42.706;23.292;2024-02-16T13:47:55;5.00;;;2.92;;
85457;SDS011;75848;42.706;23.292;2024-02-16T13:52:50;6.47;;;4.15;;
85457;SDS011;75848;42.706;23.292;2024-02-16T13:55:16;3.03;;;2.72;;
85457;SDS011;75848;42.706;23.292;2024-02-16T13:57:42;5.50;;;2.97;;
85457;SDS011;75848;42.706;23.292;2024-02-16T14:00:11;3.80;;;3.40;;
85457;SDS011;75848;42.706;23.292;2024-02-16T14:02:36;4.03;;;2.63;;
85457;SDS011;75848;42.706;23.292;2024-02-16T14:05:02;3.78;;;2.78;;
85457;SDS011;75848;42.706;23.292;2024-02-16T14:07:28;8.07;;;2.85;;
85457;SDS011;75848;42.706;23.292;2024-02-16T14:09:55;7.70;;;3.40;;
85457;SDS011;75848;42.706;23.292;2024-02-16T14:12:21;5.47;;;3.33;;
85457;SDS011;75848;42.706;23.292;2024-02-16T14:14:47;8.35;;;3.03;;
85457;SDS011;75848;42.706;23.292;2024-02-16T14:17:13;9.52;;;4.05;;
85457;SDS011;75848;42.706;23.292;2024-02-16T14:19:40;3.20;;;2.90;;
85457;SDS011;75848;42.706;23.292;2024-02-16T14:22:08;3.55;;;2.70;;
85457;SDS011;75848;42.706;23.292;2024-02-16T14:24:38;8.27;;;3.53;;
85457;SDS011;75848;42.706;23.292;2024-02-16T14:27:04;3.67;;;2.95;;
85457;SDS011;75848;42.706;23.292;2024-02-16T14:29:33;5.55;;;2.65;;
85457;SDS011;75848;42.706;23.292;2024-02-16T14:31:59;5.10;;;3.13;;
85457;SDS011;75848;42.706;23.292;2024-02-16T14:34:26;4.72;;;2.78;;